createdAt,value
2016-12-22T00:00:43.847Z,-1.6
2016-12-22T00:01:54.879Z,-1.54
2016-12-22T00:03:05.601Z,-1.53
2016-12-22T00:04:16.361Z,-1.57
2016-12-22T00:05:27.084Z,-1.61
2016-12-22T00:06:37.801Z,-1.64
2016-12-22T00:07:48.548Z,-1.56
2016-12-22T00:08:59.280Z,-1.63
2016-12-22T00:10:09.994Z,-1.63
2016-12-22T00:11:20.714Z,-1.6
2016-12-22T00:12:31.407Z,-1.57
2016-12-22T00:13:42.462Z,-1.53
2016-12-22T00:14:53.162Z,-1.5
2016-12-22T00:16:03.883Z,-1.63
2016-12-22T00:17:14.595Z,-1.63
2016-12-22T00:18:25.322Z,-1.58
2016-12-22T00:19:36.058Z,-1.53
2016-12-22T00:20:46.766Z,-1.45
2016-12-22T00:21:57.488Z,-1.48
2016-12-22T00:23:08.232Z,-1.48
2016-12-22T00:24:18.970Z,-1.45
2016-12-22T00:25:29.673Z,-1.46
2016-12-22T00:26:40.412Z,-1.53
2016-12-22T00:27:51.144Z,-1.45
2016-12-22T00:29:01.879Z,-1.53
2016-12-22T00:30:12.651Z,-1.46
2016-12-22T00:31:23.355Z,-1.46
2016-12-22T00:32:34.051Z,-1.46
2016-12-22T00:33:44.771Z,-1.45
2016-12-22T00:34:55.480Z,-1.46
2016-12-22T00:36:06.210Z,-1.54
2016-12-22T00:37:16.952Z,-1.45
2016-12-22T00:38:27.672Z,-1.5
2016-12-22T00:39:38.416Z,-1.43
2016-12-22T00:40:49.136Z,-1.48
2016-12-22T00:41:59.882Z,-1.43
2016-12-22T00:43:10.938Z,-1.45
2016-12-22T00:44:21.631Z,-1.43
2016-12-22T00:45:32.332Z,-1.5
2016-12-22T00:46:43.049Z,-1.4
2016-12-22T00:47:53.771Z,-1.45
2016-12-22T00:49:04.492Z,-1.45
2016-12-22T00:50:15.207Z,-1.5
2016-12-22T00:51:25.962Z,-1.57
2016-12-22T00:52:36.712Z,-1.4
2016-12-22T00:53:47.745Z,-1.45
2016-12-22T00:54:58.488Z,-1.45
2016-12-22T00:56:09.220Z,-1.42
2016-12-22T00:57:19.914Z,-1.46
2016-12-22T00:58:30.633Z,-1.45
2016-12-22T00:59:41.347Z,-1.48
2016-12-22T01:00:52.093Z,-1.5
2016-12-22T01:02:02.818Z,-1.43
2016-12-22T01:03:13.535Z,-1.45
2016-12-22T01:04:24.268Z,-1.48
2016-12-22T01:05:34.980Z,-1.5
2016-12-22T01:06:45.705Z,-1.48
2016-12-22T01:07:56.444Z,-1.46
2016-12-22T01:09:07.169Z,-1.51
2016-12-22T01:10:17.900Z,-1.54
2016-12-22T01:11:28.661Z,-1.54
2016-12-22T01:12:39.667Z,-1.46
2016-12-22T01:13:50.436Z,-1.56
2016-12-22T01:15:01.153Z,-1.56
2016-12-22T01:16:11.870Z,-1.53
2016-12-22T01:17:22.612Z,-1.56
2016-12-22T01:18:33.358Z,-1.51
2016-12-22T01:19:44.079Z,-1.5
2016-12-22T01:20:55.088Z,-1.57
2016-12-22T01:22:05.829Z,-1.57
2016-12-22T01:23:16.543Z,-1.57
2016-12-22T01:24:27.288Z,-1.58
2016-12-22T01:25:38.013Z,-1.64
2016-12-22T01:26:48.759Z,-1.63
2016-12-22T01:27:59.476Z,-1.5
2016-12-22T01:29:10.206Z,-1.63
2016-12-22T01:30:20.946Z,-1.58
2016-12-22T01:31:31.689Z,-1.66
2016-12-22T01:32:42.439Z,-1.69
2016-12-22T01:33:53.169Z,-1.58
2016-12-22T01:35:03.885Z,-1.61
2016-12-22T01:36:14.599Z,-1.58
2016-12-22T01:37:25.594Z,-1.63
2016-12-22T01:38:36.325Z,-1.72
2016-12-22T01:39:47.052Z,-1.61
2016-12-22T01:40:57.789Z,-1.66
2016-12-22T01:42:08.531Z,-1.66
2016-12-22T01:43:19.249Z,-1.66
2016-12-22T01:44:29.983Z,-1.66
2016-12-22T01:45:40.720Z,-1.68
2016-12-22T01:46:51.740Z,-1.81
2016-12-22T01:48:02.445Z,-1.78
2016-12-22T01:49:13.218Z,-1.69
2016-12-22T01:50:23.950Z,-1.74
2016-12-22T01:51:34.696Z,-1.66
2016-12-22T01:52:45.400Z,-1.69
2016-12-22T01:53:56.113Z,-1.76
2016-12-22T01:55:06.834Z,-1.69
2016-12-22T01:56:17.559Z,-1.76
2016-12-22T01:57:28.305Z,-1.78
2016-12-22T01:58:39.001Z,-1.86
2016-12-22T01:59:49.744Z,-1.81
2016-12-22T02:01:00.489Z,-1.82
2016-12-22T02:02:11.219Z,-1.87
2016-12-22T02:03:21.943Z,-1.78
2016-12-22T02:04:32.677Z,-1.81
2016-12-22T02:05:43.402Z,-1.86
2016-12-22T02:06:54.119Z,-1.86
2016-12-22T02:08:04.844Z,-1.86
2016-12-22T02:09:15.548Z,-1.81
2016-12-22T02:10:26.268Z,-1.82
2016-12-22T02:11:36.965Z,-1.82
2016-12-22T02:12:47.681Z,-1.84
2016-12-22T02:13:58.399Z,-1.89
2016-12-22T02:15:09.119Z,-1.81
2016-12-22T02:16:19.840Z,-1.82
2016-12-22T02:17:30.543Z,-1.84
2016-12-22T02:18:41.261Z,-1.93
2016-12-22T02:19:51.975Z,-1.86
2016-12-22T02:21:02.732Z,-1.93
2016-12-22T02:22:13.445Z,-1.96
2016-12-22T02:23:24.149Z,-1.82
2016-12-22T02:24:34.859Z,-1.87
2016-12-22T02:25:45.612Z,-1.9
2016-12-22T02:26:56.330Z,-1.96
2016-12-22T02:28:07.058Z,-1.97
2016-12-22T02:29:17.753Z,-2.05
2016-12-22T02:30:28.463Z,-1.94
2016-12-22T02:31:39.210Z,-2.05
2016-12-22T02:32:49.931Z,-2.05
2016-12-22T02:34:00.661Z,-1.97
2016-12-22T02:35:11.382Z,-2.04
2016-12-22T02:36:22.130Z,-1.93
2016-12-22T02:37:32.874Z,-1.94
2016-12-22T02:38:43.636Z,-2.04
2016-12-22T02:39:54.344Z,-2.07
2016-12-22T02:41:05.060Z,-1.92
2016-12-22T02:42:15.803Z,-2
2016-12-22T02:43:26.555Z,-2
2016-12-22T02:44:37.266Z,-2.02
2016-12-22T02:45:48.020Z,-1.97
2016-12-22T02:46:58.736Z,-2.07
2016-12-22T02:48:09.445Z,-2.02
2016-12-22T02:49:20.178Z,-2.11
2016-12-22T02:50:30.895Z,-2.05
2016-12-22T02:51:41.623Z,-2.1
2016-12-22T02:52:52.347Z,-2.1
2016-12-22T02:54:03.086Z,-2.05
2016-12-22T02:55:13.832Z,-2.07
2016-12-22T02:56:24.563Z,-2.05
2016-12-22T02:57:35.282Z,-2.11
2016-12-22T02:58:46.001Z,-2.2
2016-12-22T02:59:57.045Z,-2.08
2016-12-22T03:01:07.770Z,-2.11
2016-12-22T03:02:18.529Z,-2.17
2016-12-22T03:03:29.250Z,-2.14
2016-12-22T03:04:39.983Z,-2.23
2016-12-22T03:05:50.702Z,-2.26
2016-12-22T03:07:01.388Z,-2.15
2016-12-22T03:08:12.133Z,-2.22
2016-12-22T03:09:22.856Z,-2.15
2016-12-22T03:10:33.605Z,-2.18
2016-12-22T03:11:44.326Z,-2.18
2016-12-22T03:12:55.055Z,-2.13
2016-12-22T03:14:05.839Z,-2.2
2016-12-22T03:15:16.560Z,-2.23
2016-12-22T03:16:27.295Z,-2.2
2016-12-22T03:17:38.005Z,-2.2
2016-12-22T03:18:48.752Z,-2.2
2016-12-22T03:19:59.473Z,-2.23
2016-12-22T03:21:10.222Z,-2.32
2016-12-22T03:22:20.973Z,-2.29
2016-12-22T03:23:31.685Z,-2.32
2016-12-22T03:24:42.428Z,-2.33
2016-12-22T03:25:53.181Z,-2.2
2016-12-22T03:27:03.882Z,-2.25
2016-12-22T03:28:14.627Z,-2.29
2016-12-22T03:29:25.345Z,-2.26
2016-12-22T03:30:36.047Z,-2.32
2016-12-22T03:31:46.811Z,-2.34
2016-12-22T03:32:57.511Z,-2.26
2016-12-22T03:34:08.228Z,-2.29
2016-12-22T03:35:18.995Z,-2.29
2016-12-22T03:36:29.738Z,-2.36
2016-12-22T03:37:40.447Z,-2.36
2016-12-22T03:38:51.208Z,-2.4
2016-12-22T03:40:01.936Z,-2.44
2016-12-22T03:41:12.675Z,-2.33
2016-12-22T03:42:23.749Z,-2.34
2016-12-22T03:43:34.491Z,-2.37
2016-12-22T03:44:45.213Z,-2.34
2016-12-22T03:45:55.966Z,-2.4
2016-12-22T03:47:06.677Z,-2.44
2016-12-22T03:48:17.397Z,-2.44
2016-12-22T03:49:28.104Z,-2.42
2016-12-22T03:50:38.866Z,-2.34
2016-12-22T03:51:49.584Z,-2.37
2016-12-22T03:53:00.290Z,-2.36
2016-12-22T03:54:11.013Z,-2.33
2016-12-22T03:55:21.729Z,-2.39
2016-12-22T03:56:32.452Z,-2.34
2016-12-22T03:57:43.148Z,-2.37
2016-12-22T03:58:53.867Z,-2.37
2016-12-22T04:00:04.588Z,-2.4
2016-12-22T04:01:15.306Z,-2.47
2016-12-22T04:02:26.015Z,-2.42
2016-12-22T04:03:37.055Z,-2.42
2016-12-22T04:04:47.778Z,-2.4
2016-12-22T04:05:58.811Z,-2.37
2016-12-22T04:07:09.564Z,-2.37
2016-12-22T04:08:20.263Z,-2.36
2016-12-22T04:09:31.023Z,-2.34
2016-12-22T04:10:41.730Z,-2.33
2016-12-22T04:11:52.451Z,-2.37
2016-12-22T04:13:03.175Z,-2.36
2016-12-22T04:14:13.883Z,-2.39
2016-12-22T04:15:24.606Z,-2.4
2016-12-22T04:16:35.312Z,-2.42
2016-12-22T04:17:46.084Z,-2.34
2016-12-22T04:18:56.821Z,-2.37
2016-12-22T04:20:07.564Z,-2.47
2016-12-22T04:21:18.319Z,-2.44
2016-12-22T04:22:29.029Z,-2.34
2016-12-22T04:23:39.755Z,-2.44
2016-12-22T04:24:50.501Z,-2.45
2016-12-22T04:26:01.229Z,-2.36
2016-12-22T04:27:12.251Z,-2.47
2016-12-22T04:28:23.013Z,-2.48
2016-12-22T04:29:33.738Z,-2.45
2016-12-22T04:30:44.434Z,-2.45
2016-12-22T04:31:55.156Z,-2.47
2016-12-22T04:33:05.873Z,-2.4
2016-12-22T04:34:16.574Z,-2.47
2016-12-22T04:35:27.270Z,-2.48
2016-12-22T04:36:37.989Z,-2.42
2016-12-22T04:37:48.728Z,-2.52
2016-12-22T04:38:59.477Z,-2.47
2016-12-22T04:40:10.178Z,-2.48
2016-12-22T04:41:21.245Z,-2.48
2016-12-22T04:42:31.972Z,-2.48
2016-12-22T04:43:42.688Z,-2.48
2016-12-22T04:44:53.704Z,-2.45
2016-12-22T04:46:04.413Z,-2.5
2016-12-22T04:47:15.146Z,-2.44
2016-12-22T04:48:25.877Z,-2.48
2016-12-22T04:49:36.574Z,-2.48
2016-12-22T04:50:47.621Z,-2.5
2016-12-22T04:51:58.358Z,-2.45
2016-12-22T04:53:09.104Z,-2.5
2016-12-22T04:54:19.826Z,-2.48
2016-12-22T04:55:30.576Z,-2.48
2016-12-22T04:56:41.290Z,-2.45
2016-12-22T04:57:52.017Z,-2.44
2016-12-22T04:59:02.766Z,-2.37
2016-12-22T05:00:13.759Z,-2.34
2016-12-22T05:01:24.485Z,-2.34
2016-12-22T05:02:35.219Z,-2.34
2016-12-22T05:03:46.223Z,-2.34
2016-12-22T05:04:56.961Z,-2.34
2016-12-22T05:06:07.693Z,-2.4
2016-12-22T05:07:18.432Z,-2.36
2016-12-22T05:08:29.178Z,-2.39
2016-12-22T05:09:39.895Z,-2.36
2016-12-22T05:10:50.600Z,-2.39
2016-12-22T05:12:01.316Z,-2.28
2016-12-22T05:13:12.037Z,-2.29
2016-12-22T05:14:22.784Z,-2.26
2016-12-22T05:15:33.557Z,-2.23
2016-12-22T05:16:44.276Z,-2.26
2016-12-22T05:17:54.996Z,-2.2
2016-12-22T05:19:05.697Z,-2.28
2016-12-22T05:20:16.413Z,-2.28
2016-12-22T05:21:27.164Z,-2.37
2016-12-22T05:22:37.909Z,-2.23
2016-12-22T05:23:48.626Z,-2.26
2016-12-22T05:24:59.354Z,-2.28
2016-12-22T05:26:10.102Z,-2.33
2016-12-22T05:27:20.813Z,-2.28
2016-12-22T05:28:31.557Z,-2.28
2016-12-22T05:29:42.281Z,-2.29
2016-12-22T05:30:53.006Z,-2.17
2016-12-22T05:32:03.744Z,-2.26
2016-12-22T05:33:14.469Z,-2.23
2016-12-22T05:34:25.211Z,-2.25
2016-12-22T05:35:35.936Z,-2.32
2016-12-22T05:36:46.655Z,-2.26
2016-12-22T05:37:57.377Z,-2.25
2016-12-22T05:39:08.110Z,-2.18
2016-12-22T05:40:18.841Z,-2.23
2016-12-22T05:41:29.566Z,-2.25
2016-12-22T05:42:40.320Z,-2.25
2016-12-22T05:43:51.041Z,-2.22
2016-12-22T05:45:01.783Z,-2.25
2016-12-22T05:46:12.497Z,-2.22
2016-12-22T05:47:23.221Z,-2.2
2016-12-22T05:48:33.938Z,-2.1
2016-12-22T05:49:44.663Z,-2.2
2016-12-22T05:50:55.388Z,-2.17
2016-12-22T05:52:06.114Z,-2.25
2016-12-22T05:53:16.826Z,-2.2
2016-12-22T05:54:27.553Z,-2.2
2016-12-22T05:55:38.294Z,-2.22
2016-12-22T05:56:49.040Z,-2.18
2016-12-22T05:57:59.759Z,-2.22
2016-12-22T05:59:10.487Z,-2.15
2016-12-22T06:00:21.228Z,-2.26
2016-12-22T06:01:31.956Z,-2.15
2016-12-22T06:02:42.691Z,-2.22
2016-12-22T06:03:53.398Z,-2.2
2016-12-22T06:05:04.136Z,-2.15
2016-12-22T06:06:14.865Z,-2.11
2016-12-22T06:07:25.588Z,-2.18
2016-12-22T06:08:36.349Z,-2.23
2016-12-22T06:09:47.379Z,-2.2
2016-12-22T06:10:58.095Z,-2.15
2016-12-22T06:12:08.862Z,-2.15
2016-12-22T06:13:19.583Z,-2.25
2016-12-22T06:14:30.305Z,-2.22
2016-12-22T06:15:41.047Z,-2.2
2016-12-22T06:16:51.804Z,-2.18
2016-12-22T06:18:02.517Z,-2.2
2016-12-22T06:19:13.240Z,-2.22
2016-12-22T06:20:23.956Z,-2.18
2016-12-22T06:21:34.727Z,-2.2
2016-12-22T06:22:45.448Z,-2.13
2016-12-22T06:23:56.181Z,-2.18
2016-12-22T06:25:06.923Z,-2.22
2016-12-22T06:26:17.660Z,-2.15
2016-12-22T06:27:28.367Z,-2.25
2016-12-22T06:28:39.081Z,-2.18
2016-12-22T06:29:49.813Z,-2.2
2016-12-22T06:31:00.548Z,-2.28
2016-12-22T06:32:11.291Z,-2.23
2016-12-22T06:33:22.020Z,-2.17
2016-12-22T06:34:32.762Z,-2.25
2016-12-22T06:35:43.482Z,-2.18
2016-12-22T06:36:54.211Z,-2.18
2016-12-22T06:38:04.925Z,-2.17
2016-12-22T06:39:15.653Z,-2.22
2016-12-22T06:40:26.364Z,-2.17
2016-12-22T06:41:37.071Z,-2.17
2016-12-22T06:42:47.817Z,-2.22
2016-12-22T06:43:58.535Z,-2.25
2016-12-22T06:45:09.259Z,-2.22
2016-12-22T06:46:19.980Z,-2.22
2016-12-22T06:47:30.668Z,-2.26
2016-12-22T06:48:41.389Z,-2.2
2016-12-22T06:49:52.132Z,-2.25
2016-12-22T06:51:02.831Z,-2.2
2016-12-22T06:52:13.531Z,-2.18
2016-12-22T06:53:24.273Z,-2.22
2016-12-22T06:54:35.001Z,-2.18
2016-12-22T06:55:45.723Z,-2.2
2016-12-22T06:56:56.444Z,-2.18
2016-12-22T06:58:07.154Z,-2.18
2016-12-22T06:59:17.887Z,-2.15
2016-12-22T07:00:28.579Z,-2.15
2016-12-22T07:01:39.296Z,-2.15
2016-12-22T07:02:50.012Z,-2.17
2016-12-22T07:04:00.758Z,-2.25
2016-12-22T07:05:11.522Z,-2.15
2016-12-22T07:06:22.237Z,-2.23
2016-12-22T07:07:32.973Z,-2.17
2016-12-22T07:08:44.004Z,-2.18
2016-12-22T07:09:54.718Z,-2.22
2016-12-22T07:11:05.464Z,-2.15
2016-12-22T07:12:16.213Z,-2.13
2016-12-22T07:13:26.913Z,-2.14
2016-12-22T07:14:37.601Z,-2.17
2016-12-22T07:15:48.318Z,-2.11
2016-12-22T07:16:59.019Z,-2.13
2016-12-22T07:18:09.725Z,-2.11
2016-12-22T07:19:20.444Z,-2.22
2016-12-22T07:20:31.167Z,-2.08
2016-12-22T07:21:41.882Z,-2.13
2016-12-22T07:22:52.570Z,-2.13
2016-12-22T07:24:03.277Z,-2.11
2016-12-22T07:25:13.998Z,-2.13
2016-12-22T07:26:24.720Z,-2.08
2016-12-22T07:27:35.429Z,-2.14
2016-12-22T07:28:46.157Z,-2.1
2016-12-22T07:29:56.884Z,-2.11
2016-12-22T07:31:07.604Z,-2.07
2016-12-22T07:32:18.324Z,-2.04
2016-12-22T07:33:29.025Z,-2.11
2016-12-22T07:34:39.764Z,-2
2016-12-22T07:35:50.477Z,-1.99
2016-12-22T07:37:01.185Z,-1.93
2016-12-22T07:38:11.922Z,-1.92
2016-12-22T07:39:22.647Z,-1.86
2016-12-22T07:40:33.360Z,-1.71
2016-12-22T07:41:44.084Z,-1.78
2016-12-22T07:42:54.805Z,-1.61
2016-12-22T07:44:05.523Z,-1.6
2016-12-22T07:45:16.244Z,-1.46
2016-12-22T07:46:26.972Z,-1.45
2016-12-22T07:47:37.740Z,-1.39
2016-12-22T07:48:48.495Z,-1.33
2016-12-22T07:49:59.234Z,-1.24
2016-12-22T07:51:09.960Z,-1.21
2016-12-22T07:52:20.702Z,-1.21
2016-12-22T07:53:31.449Z,-1.22
2016-12-22T07:54:42.156Z,-1.09
2016-12-22T07:55:53.210Z,-1.01
2016-12-22T07:57:03.939Z,-0.96
2016-12-22T07:58:14.656Z,-0.94
2016-12-22T07:59:25.369Z,-0.91
2016-12-22T08:00:36.104Z,-0.87
2016-12-22T08:01:46.847Z,-0.8
2016-12-22T08:02:57.585Z,-0.82
2016-12-22T08:04:08.281Z,-0.75
2016-12-22T08:05:19.027Z,-0.7
2016-12-22T08:06:29.770Z,-0.66
2016-12-22T08:07:40.491Z,-0.54
2016-12-22T08:08:51.198Z,-0.49
2016-12-22T08:10:01.907Z,-0.48
2016-12-22T08:11:12.953Z,-0.44
2016-12-22T08:12:23.677Z,-0.41
2016-12-22T08:13:34.405Z,-0.39
2016-12-22T08:14:45.166Z,-0.39
2016-12-22T08:15:55.915Z,-0.31
2016-12-22T08:17:06.640Z,-0.35
2016-12-22T08:18:17.354Z,-0.26
2016-12-22T08:19:28.085Z,-0.27
2016-12-22T08:20:38.807Z,-0.18
2016-12-22T08:21:49.524Z,-0.18
2016-12-22T08:23:00.288Z,-0.15
2016-12-22T08:24:10.994Z,-0.1
2016-12-22T08:25:21.711Z,-0.02
2016-12-22T08:26:32.428Z,-0.05
2016-12-22T08:27:43.146Z,0.06
2016-12-22T08:28:53.898Z,0.08
2016-12-22T08:30:04.612Z,0.02
2016-12-22T08:31:15.361Z,0.01
2016-12-22T08:32:26.107Z,0.12
2016-12-22T08:33:36.834Z,0.23
2016-12-22T08:34:47.555Z,0.18
2016-12-22T08:35:58.269Z,0.23
2016-12-22T08:37:08.987Z,0.27
2016-12-22T08:38:19.696Z,0.27
2016-12-22T08:39:30.439Z,0.33
2016-12-22T08:40:41.187Z,0.33
2016-12-22T08:41:51.903Z,0.33
2016-12-22T08:43:02.929Z,0.31
2016-12-22T08:44:13.665Z,0.34
2016-12-22T08:45:24.386Z,0.44
2016-12-22T08:46:35.128Z,0.42
2016-12-22T08:47:45.860Z,0.42
2016-12-22T08:48:56.584Z,0.49
2016-12-22T08:50:07.315Z,0.51
2016-12-22T08:51:18.024Z,0.52
2016-12-22T08:52:28.761Z,0.56
2016-12-22T08:53:39.521Z,0.55
2016-12-22T08:54:50.237Z,0.59
2016-12-22T08:56:00.982Z,0.58
2016-12-22T08:57:11.728Z,0.66
2016-12-22T08:58:22.475Z,0.55
2016-12-22T08:59:33.215Z,0.7
2016-12-22T09:00:43.955Z,0.77
2016-12-22T09:01:54.705Z,0.7
2016-12-22T09:03:05.733Z,0.74
2016-12-22T09:04:16.457Z,0.71
2016-12-22T09:05:27.173Z,0.84
2016-12-22T09:06:38.200Z,0.88
2016-12-22T09:07:48.911Z,0.82
2016-12-22T09:08:59.952Z,0.91
2016-12-22T09:10:10.655Z,0.96
2016-12-22T09:11:21.356Z,1.02
2016-12-22T09:12:32.094Z,1.07
2016-12-22T09:13:42.826Z,1.02
2016-12-22T09:14:53.569Z,1
2016-12-22T09:16:04.286Z,1.03
2016-12-22T09:17:15.000Z,1.12
2016-12-22T09:22:19.715Z,1.24
2016-12-22T09:23:30.441Z,1.14
2016-12-22T09:24:41.160Z,1.24
2016-12-22T09:25:51.881Z,1.27
2016-12-22T09:27:02.627Z,1.28
2016-12-22T09:28:13.398Z,1.3
2016-12-22T09:29:24.124Z,1.27
2016-12-22T09:30:34.871Z,1.43
2016-12-22T09:31:45.912Z,1.38
2016-12-22T09:32:56.625Z,1.38
2016-12-22T09:34:07.327Z,1.4
2016-12-22T09:35:18.038Z,1.46
2016-12-22T09:36:28.772Z,1.48
2016-12-22T09:37:39.492Z,1.5
2016-12-22T09:38:50.205Z,1.49
2016-12-22T09:40:00.928Z,1.5
2016-12-22T09:41:11.669Z,1.53
2016-12-22T09:42:22.415Z,1.57
2016-12-22T09:43:33.165Z,1.66
2016-12-22T09:44:43.888Z,1.68
2016-12-22T09:45:54.586Z,1.66
2016-12-22T09:47:05.283Z,1.7
2016-12-22T09:48:16.021Z,1.67
2016-12-22T09:49:26.717Z,1.76
2016-12-22T09:50:37.441Z,1.82
2016-12-22T09:51:48.172Z,1.88
2016-12-22T09:52:58.912Z,1.82
2016-12-22T09:54:09.655Z,1.85
2016-12-22T09:55:20.383Z,1.88
2016-12-22T09:56:31.126Z,1.81
2016-12-22T09:57:41.851Z,1.93
2016-12-22T09:58:52.597Z,1.97
2016-12-22T10:00:03.342Z,2.03
2016-12-22T10:01:14.088Z,2.01
2016-12-22T10:02:24.813Z,2.08
2016-12-22T10:03:35.529Z,2.08
2016-12-22T10:04:46.248Z,2.14
2016-12-22T10:05:56.976Z,2.1
2016-12-22T10:07:07.717Z,2.23
2016-12-22T10:08:18.453Z,2.23
2016-12-22T10:09:29.160Z,2.3
2016-12-22T10:10:39.860Z,2.25
2016-12-22T10:11:50.579Z,2.34
2016-12-22T10:13:01.295Z,2.39
2016-12-22T10:14:12.013Z,2.33
2016-12-22T10:15:22.734Z,2.41
2016-12-22T10:16:33.479Z,2.43
2016-12-22T10:17:44.201Z,2.46
2016-12-22T10:18:54.928Z,2.47
2016-12-22T10:20:05.643Z,2.54
2016-12-22T10:21:16.363Z,2.58
2016-12-22T10:22:27.117Z,2.47
2016-12-22T10:23:37.835Z,2.46
2016-12-22T10:24:48.536Z,2.55
2016-12-22T10:25:59.257Z,2.54
2016-12-22T10:27:10.003Z,2.54
2016-12-22T10:28:20.749Z,2.54
2016-12-22T10:29:31.471Z,2.65
2016-12-22T10:30:42.208Z,2.51
2016-12-22T10:31:52.954Z,2.64
2016-12-22T10:33:03.675Z,2.64
2016-12-22T10:34:14.402Z,2.62
2016-12-22T10:35:25.118Z,2.72
2016-12-22T10:36:35.860Z,2.72
2016-12-22T10:37:46.609Z,2.75
2016-12-22T10:38:57.313Z,2.73
2016-12-22T10:40:08.351Z,2.72
2016-12-22T10:41:19.101Z,2.72
2016-12-22T10:42:29.818Z,2.75
2016-12-22T10:43:40.545Z,2.75
2016-12-22T10:44:51.283Z,2.87
2016-12-22T10:46:02.036Z,2.85
2016-12-22T10:47:12.774Z,2.85
2016-12-22T10:48:23.509Z,2.82
2016-12-22T10:49:34.226Z,2.85
2016-12-22T10:50:44.945Z,2.88
2016-12-22T10:51:55.669Z,2.9
2016-12-22T10:53:06.390Z,2.94
2016-12-22T10:54:17.127Z,2.94
2016-12-22T10:55:27.872Z,2.93
2016-12-22T10:56:38.600Z,2.85
2016-12-22T10:57:49.317Z,2.95
2016-12-22T10:59:00.074Z,2.98
2016-12-22T11:00:10.814Z,2.93
2016-12-22T11:01:21.529Z,2.97
2016-12-22T11:02:32.572Z,3.01
2016-12-22T11:03:43.302Z,3.08
2016-12-22T11:04:54.044Z,2.97
2016-12-22T11:06:04.790Z,3.06
2016-12-22T11:07:15.548Z,3.11
2016-12-22T11:08:26.289Z,3.08
2016-12-22T11:09:37.004Z,3.06
2016-12-22T11:10:47.729Z,3.09
2016-12-22T11:11:58.427Z,3.05
2016-12-22T11:13:09.147Z,3.01
2016-12-22T11:14:20.166Z,3.09
2016-12-22T11:15:30.883Z,3.06
2016-12-22T11:16:41.604Z,3.12
2016-12-22T11:17:52.340Z,3.16
2016-12-22T11:19:03.054Z,3.11
2016-12-22T11:20:13.795Z,3.21
2016-12-22T11:21:24.535Z,3.16
2016-12-22T11:22:35.290Z,3.22
2016-12-22T11:23:46.009Z,3.26
2016-12-22T11:24:56.748Z,3.34
2016-12-22T11:26:07.497Z,3.27
2016-12-22T11:27:18.243Z,3.21
2016-12-22T11:28:28.973Z,3.22
2016-12-22T11:29:39.710Z,3.21
2016-12-22T11:30:50.435Z,3.22
2016-12-22T11:32:01.178Z,3.36
2016-12-22T11:33:11.898Z,3.33
2016-12-22T11:34:22.616Z,3.26
2016-12-22T11:35:33.369Z,3.36
2016-12-22T11:36:44.083Z,3.33
2016-12-22T11:37:54.812Z,3.4
2016-12-22T11:39:05.529Z,3.4
2016-12-22T11:40:16.579Z,3.43
2016-12-22T11:41:27.299Z,3.36
2016-12-22T11:42:37.998Z,3.43
2016-12-22T11:43:48.738Z,3.37
2016-12-22T11:44:59.505Z,3.48
2016-12-22T11:46:10.226Z,3.43
2016-12-22T11:47:20.956Z,3.49
2016-12-22T11:48:31.697Z,3.48
2016-12-22T11:49:42.443Z,3.53
2016-12-22T11:50:53.198Z,3.46
2016-12-22T11:52:03.943Z,3.53
2016-12-22T11:53:14.667Z,3.46
2016-12-22T11:54:25.383Z,3.59
2016-12-22T11:55:36.381Z,3.5
2016-12-22T11:56:47.099Z,3.58
2016-12-22T11:57:57.823Z,3.53
2016-12-22T11:59:08.565Z,3.55
2016-12-22T12:00:19.304Z,3.64
2016-12-22T12:01:30.033Z,3.64
2016-12-22T12:02:40.796Z,3.63
2016-12-22T12:03:51.520Z,3.61
2016-12-22T12:05:02.266Z,3.61
2016-12-22T12:06:12.995Z,3.71
2016-12-22T12:07:23.712Z,3.76
2016-12-22T12:08:34.436Z,3.73
2016-12-22T12:09:45.159Z,3.73
2016-12-22T12:10:55.871Z,3.71
2016-12-22T12:12:06.588Z,3.7
2016-12-22T12:13:17.287Z,3.67
2016-12-22T12:14:28.005Z,3.68
2016-12-22T12:15:38.730Z,3.77
2016-12-22T12:16:49.458Z,3.84
2016-12-22T12:18:00.198Z,3.86
2016-12-22T12:19:10.915Z,3.82
2016-12-22T12:20:21.667Z,3.81
2016-12-22T12:21:32.418Z,3.78
2016-12-22T12:22:43.156Z,3.82
2016-12-22T12:23:53.877Z,3.84
2016-12-22T12:25:04.594Z,3.86
2016-12-22T12:26:15.316Z,3.84
2016-12-22T12:27:26.072Z,3.85
2016-12-22T12:28:37.107Z,3.86
2016-12-22T12:29:47.842Z,3.94
2016-12-22T12:30:58.557Z,3.91
2016-12-22T12:32:09.296Z,3.89
2016-12-22T12:33:20.042Z,3.85
2016-12-22T12:34:30.770Z,3.92
2016-12-22T12:35:41.511Z,3.86
2016-12-22T12:36:52.211Z,3.89
2016-12-22T12:38:02.911Z,3.91
2016-12-22T12:39:13.632Z,3.88
2016-12-22T12:40:24.345Z,3.91
2016-12-22T12:41:35.146Z,3.95
2016-12-22T12:42:45.868Z,3.94
2016-12-22T12:43:56.604Z,3.92
2016-12-22T12:45:07.326Z,3.88
2016-12-22T12:46:18.079Z,3.94
2016-12-22T12:47:28.796Z,4.03
2016-12-22T12:48:39.540Z,3.89
2016-12-22T12:49:50.243Z,4.09
2016-12-22T12:51:00.963Z,4.03
2016-12-22T12:52:11.965Z,4.02
2016-12-22T12:53:22.723Z,4.04
2016-12-22T12:54:33.453Z,4.02
2016-12-22T12:55:44.197Z,4
2016-12-22T12:56:54.923Z,4.04
2016-12-22T12:58:05.665Z,3.99
2016-12-22T12:59:16.387Z,4.03
2016-12-22T13:00:27.109Z,4.02
2016-12-22T13:01:37.828Z,3.99
2016-12-22T13:02:48.541Z,3.99
2016-12-22T13:03:59.572Z,4.02
2016-12-22T13:05:10.318Z,4.04
2016-12-22T13:06:21.036Z,4.03
2016-12-22T13:07:31.750Z,4.02
2016-12-22T13:08:42.474Z,4.04
2016-12-22T13:09:53.224Z,4.03
2016-12-22T13:11:03.941Z,4.02
2016-12-22T13:12:14.670Z,4.02
2016-12-22T13:13:25.405Z,4.02
2016-12-22T13:14:36.116Z,3.96
2016-12-22T13:15:46.857Z,3.95
2016-12-22T13:16:57.568Z,4.02
2016-12-22T13:18:08.316Z,4.03
2016-12-22T13:19:19.062Z,4.06
2016-12-22T13:20:29.788Z,4.02
2016-12-22T13:21:40.509Z,4.02
2016-12-22T13:22:51.226Z,4.04
2016-12-22T13:24:01.968Z,3.96
2016-12-22T13:25:12.689Z,4.02
2016-12-22T13:26:23.421Z,4.04
2016-12-22T13:27:34.155Z,4.07
2016-12-22T13:28:44.878Z,4.03
2016-12-22T13:29:55.634Z,4.09
2016-12-22T13:31:06.374Z,4.03
2016-12-22T13:32:17.091Z,4.04
2016-12-22T13:33:27.839Z,4.03
2016-12-22T13:34:38.586Z,4.02
2016-12-22T13:35:49.292Z,4.07
2016-12-22T13:37:00.009Z,4.07
2016-12-22T13:38:10.745Z,4.06
2016-12-22T13:39:21.478Z,3.96
2016-12-22T13:40:32.199Z,4
2016-12-22T13:41:42.939Z,4
2016-12-22T13:42:53.653Z,4.02
2016-12-22T13:44:04.374Z,4.03
2016-12-22T13:45:15.120Z,3.89
2016-12-22T13:46:25.849Z,3.89
2016-12-22T13:47:36.570Z,3.89
2016-12-22T13:48:47.291Z,3.91
2016-12-22T13:49:58.040Z,3.91
2016-12-22T13:51:09.064Z,3.89
2016-12-22T13:52:19.855Z,3.95
2016-12-22T13:53:30.570Z,3.89
2016-12-22T13:54:41.295Z,3.92
2016-12-22T13:55:51.991Z,3.92
2016-12-22T13:57:03.033Z,3.89
2016-12-22T13:58:13.751Z,3.96
2016-12-22T13:59:24.512Z,3.89
2016-12-22T14:00:35.246Z,3.91
2016-12-22T14:01:45.967Z,3.85
2016-12-22T14:02:56.693Z,3.84
2016-12-22T14:04:07.430Z,3.81
2016-12-22T14:05:18.157Z,3.76
2016-12-22T14:06:28.904Z,3.76
2016-12-22T14:07:39.649Z,3.73
2016-12-22T14:08:50.401Z,3.76
2016-12-22T14:10:01.139Z,3.74
2016-12-22T14:11:11.905Z,3.68
2016-12-22T14:12:22.651Z,3.73
2016-12-22T14:13:33.372Z,3.74
2016-12-22T14:14:44.428Z,3.59
2016-12-22T14:15:55.163Z,3.67
2016-12-22T14:17:05.863Z,3.63
2016-12-22T14:18:16.588Z,3.64
2016-12-22T14:19:27.311Z,3.64
2016-12-22T14:20:38.034Z,3.55
2016-12-22T14:21:48.750Z,3.64
2016-12-22T14:22:59.463Z,3.53
2016-12-22T14:24:10.216Z,3.56
2016-12-22T14:25:20.929Z,3.56
2016-12-22T14:26:31.641Z,3.49
2016-12-22T14:27:42.375Z,3.49
2016-12-22T14:28:53.100Z,3.52
2016-12-22T14:30:03.827Z,3.55
2016-12-22T14:31:14.534Z,3.5
2016-12-22T14:32:25.255Z,3.41
2016-12-22T14:33:36.004Z,3.43
2016-12-22T14:34:46.734Z,3.4
2016-12-22T14:35:57.750Z,3.37
2016-12-22T14:37:08.489Z,3.4
2016-12-22T14:38:19.222Z,3.34
2016-12-22T14:39:29.963Z,3.43
2016-12-22T14:40:40.688Z,3.3
2016-12-22T14:41:51.407Z,3.37
2016-12-22T14:43:02.147Z,3.27
2016-12-22T14:44:12.876Z,3.33
2016-12-22T14:45:23.610Z,3.31
2016-12-22T14:46:34.332Z,3.24
2016-12-22T14:47:45.077Z,3.24
2016-12-22T14:48:55.831Z,3.21
2016-12-22T14:50:06.581Z,3.24
2016-12-22T14:51:17.598Z,3.4
2016-12-22T14:52:28.636Z,3.26
2016-12-22T14:53:39.364Z,3.26
2016-12-22T14:54:50.079Z,3.3
2016-12-22T14:56:00.802Z,3.19
2016-12-22T14:57:11.518Z,3.3
2016-12-22T14:58:22.243Z,3.16
2016-12-22T14:59:32.964Z,3.26
2016-12-22T15:00:43.690Z,3.22
2016-12-22T15:01:54.712Z,3.13
2016-12-22T15:03:05.474Z,3.11
2016-12-22T15:04:16.217Z,3.13
2016-12-22T15:05:27.291Z,3.09
2016-12-22T15:06:38.020Z,3.13
2016-12-22T15:07:48.743Z,3.11
2016-12-22T15:08:59.481Z,3.09
2016-12-22T15:10:10.226Z,3.15
2016-12-22T15:11:20.949Z,3.06
2016-12-22T15:12:31.677Z,3.06
2016-12-22T15:13:42.399Z,3.03
2016-12-22T15:14:53.134Z,3.08
2016-12-22T15:16:03.866Z,3
2016-12-22T15:17:14.585Z,3.06
2016-12-22T15:18:25.286Z,3.01
2016-12-22T15:19:35.979Z,3.01
2016-12-22T15:20:46.701Z,2.91
2016-12-22T15:21:57.410Z,3.06
2016-12-22T15:23:08.159Z,3.03
2016-12-22T15:24:18.902Z,3
2016-12-22T15:25:29.610Z,2.87
2016-12-22T15:26:40.327Z,2.94
2016-12-22T15:27:51.068Z,3.08
2016-12-22T15:29:01.786Z,2.9
2016-12-22T15:30:12.492Z,2.94
2016-12-22T15:31:23.190Z,2.97
2016-12-22T15:32:33.911Z,2.97